createdAt,value
2023-05-02T03:58:08.152Z,100603.22
2023-05-02T04:01:15.497Z,100603.22
2023-05-02T04:04:18.903Z,100605.03
2023-05-02T04:07:21.385Z,100611.56
2023-05-02T04:10:24.741Z,100608.53
2023-05-02T04:13:29.035Z,100610.63
2023-05-02T04:16:31.780Z,100614.22
2023-05-02T04:19:34.764Z,100609.72
2023-05-02T04:22:39.594Z,100606.44
2023-05-02T04:25:42.024Z,100611.44
2023-05-02T04:28:44.440Z,100606.53
2023-05-02T04:31:48.832Z,100616.22
2023-05-02T04:34:51.385Z,100624.22
2023-05-02T04:37:53.644Z,100626.63
2023-05-02T04:40:56.450Z,100630.09
2023-05-02T04:44:00.452Z,100634.91
2023-05-02T04:47:04.657Z,100627.41
2023-05-02T04:50:07.532Z,100631.78
2023-05-02T04:53:11.307Z,100628.00
2023-05-02T04:56:13.652Z,100630.72
2023-05-02T04:59:16.608Z,100637.53
2023-05-02T05:02:18.968Z,100631.34
2023-05-02T05:05:21.712Z,100636.31
2023-05-02T05:08:24.818Z,100628.09
2023-05-02T05:11:27.214Z,100640.63
2023-05-02T05:14:31.353Z,100638.62
2023-05-02T05:17:34.514Z,100640.41
2023-05-02T05:20:37.020Z,100645.75
2023-05-02T05:23:39.791Z,100645.06
2023-05-02T05:26:42.290Z,100651.66
2023-05-02T05:29:45.401Z,100648.88
2023-05-02T05:32:47.687Z,100653.69
2023-05-02T05:35:50.184Z,100660.87
2023-05-02T05:38:52.361Z,100652.03
2023-05-02T05:41:55.018Z,100655.22
2023-05-02T05:44:57.695Z,100653.16
2023-05-02T05:48:00.339Z,100669.78
2023-05-02T05:51:06.298Z,100674.44
2023-05-02T05:54:09.145Z,100672.72
2023-05-02T05:57:11.666Z,100669.75
2023-05-02T06:00:14.670Z,100668.81
2023-05-02T06:03:17.834Z,100674.53
2023-05-02T06:06:21.627Z,100672.81
2023-05-02T06:09:24.105Z,100669.62
2023-05-02T06:12:26.880Z,100673.44
2023-05-02T06:15:29.166Z,100669.91
2023-05-02T06:18:32.656Z,100670.75
2023-05-02T06:21:37.597Z,100681.09
2023-05-02T06:24:40.178Z,100666.88
2023-05-02T06:27:42.280Z,100677.87
2023-05-02T06:30:44.735Z,100670.41
2023-05-02T06:33:46.858Z,100677.75
2023-05-02T06:36:49.702Z,100675.84
2023-05-02T06:39:51.854Z,100671.37
2023-05-02T06:42:54.528Z,100678.06
2023-05-02T06:45:57.591Z,100678.22
2023-05-02T06:48:59.972Z,100675.81
2023-05-02T06:52:02.166Z,100678.63
2023-05-02T06:55:05.510Z,100673.81
2023-05-02T06:58:07.733Z,100685.13
2023-05-02T07:01:10.550Z,100671.88
2023-05-02T07:04:12.873Z,100677.84
2023-05-02T07:07:18.782Z,100674.19
2023-05-02T07:10:21.020Z,100683.59
2023-05-02T07:13:23.439Z,100677.00
2023-05-02T07:16:25.781Z,100674.63
2023-05-02T07:19:28.205Z,100679.72
2023-05-02T07:22:30.367Z,100679.53
2023-05-02T07:25:32.839Z,100682.72
2023-05-02T07:28:34.961Z,100671.63
2023-05-02T07:31:37.379Z,100676.78
2023-05-02T07:34:39.510Z,100683.97
2023-05-02T07:37:42.084Z,100685.66
2023-05-02T07:40:44.259Z,100683.22
2023-05-02T07:43:46.732Z,100692.59
2023-05-02T07:46:49.479Z,100685.59
2023-05-02T07:49:53.181Z,100688.56
2023-05-02T07:52:56.198Z,100693.91
2023-05-02T07:55:58.596Z,100689.13
2023-05-02T07:59:00.706Z,100690.56
2023-05-02T08:02:04.362Z,100682.56
2023-05-02T08:05:07.981Z,100681.91
2023-05-02T08:08:10.315Z,100681.69
2023-05-02T08:11:13.067Z,100686.00
2023-05-02T08:14:16.338Z,100680.31
2023-05-02T08:17:18.724Z,100689.97
2023-05-02T08:20:22.262Z,100697.94
2023-05-02T08:23:24.934Z,100697.38
2023-05-02T08:26:27.933Z,100693.56
2023-05-02T08:29:31.492Z,100686.28
2023-05-02T08:32:33.709Z,100690.97
2023-05-02T08:35:36.492Z,100687.13
2023-05-02T08:38:38.583Z,100678.50
2023-05-02T08:41:41.035Z,100672.88
2023-05-02T08:44:43.193Z,100664.03
2023-05-02T08:47:47.057Z,100672.47
2023-05-02T08:50:50.537Z,100679.88
2023-05-02T08:53:54.492Z,100670.31
2023-05-02T08:56:59.487Z,100676.91
2023-05-02T09:00:02.060Z,100662.88
2023-05-02T09:03:31.378Z,100666.31
2023-05-02T09:06:35.137Z,100663.25
2023-05-02T09:09:37.689Z,100656.34
2023-05-02T09:12:40.828Z,100659.31
2023-05-02T09:15:43.143Z,100657.75
2023-05-02T09:18:48.248Z,100657.31
2023-05-02T09:21:50.482Z,100658.88
2023-05-02T09:24:57.327Z,100658.00
2023-05-02T09:28:01.838Z,100649.03
2023-05-02T09:31:09.604Z,100649.84
2023-05-02T09:34:17.944Z,100650.63
2023-05-02T09:37:36.100Z,100656.34
2023-05-02T09:40:38.242Z,100654.41
2023-05-02T09:43:41.378Z,100658.13
2023-05-02T09:46:45.602Z,100653.47
2023-05-02T09:49:49.631Z,100652.91
2023-05-02T09:53:05.260Z,100645.31
2023-05-02T09:56:08.204Z,100633.03
2023-05-02T09:59:14.889Z,100644.13
2023-05-02T10:02:18.002Z,100633.53
2023-05-02T10:05:21.124Z,100644.66
2023-05-02T10:08:27.243Z,100653.87
2023-05-02T10:11:32.282Z,100653.41
2023-05-02T10:14:41.618Z,100652.72
2023-05-02T10:17:48.714Z,100648.06
2023-05-02T10:21:08.076Z,100638.03
2023-05-02T10:24:11.704Z,100633.94
2023-05-02T10:27:14.432Z,100633.63
2023-05-02T10:30:17.685Z,100632.25
2023-05-02T10:33:21.915Z,100636.13
2023-05-02T10:36:24.349Z,100630.00
2023-05-02T10:39:27.630Z,100635.62
2023-05-02T10:42:30.615Z,100631.09
2023-05-02T10:45:34.769Z,100628.13
2023-05-02T10:48:38.662Z,100629.97
2023-05-02T10:51:42.364Z,100626.53
2023-05-02T10:54:45.112Z,100625.56
2023-05-02T10:58:02.609Z,100622.94
2023-05-02T11:01:30.771Z,100616.50
2023-05-02T11:05:03.103Z,100617.75
2023-05-02T11:08:30.843Z,100610.31
2023-05-02T11:11:43.341Z,100600.44
2023-05-02T11:14:48.304Z,100598.16
2023-05-02T11:18:16.579Z,100587.94
2023-05-02T11:21:31.051Z,100594.91
2023-05-02T11:24:40.704Z,100586.63
2023-05-02T11:27:45.579Z,100582.87
2023-05-02T11:30:48.671Z,100581.38
2023-05-02T11:33:57.655Z,100584.09
2023-05-02T11:36:59.833Z,100586.72
2023-05-02T11:40:14.970Z,100582.44
2023-05-02T11:43:19.344Z,100581.47
2023-05-02T11:46:21.804Z,100577.47
2023-05-02T11:49:24.285Z,100584.69
2023-05-02T11:52:26.706Z,100585.47
2023-05-02T11:55:28.971Z,100571.47
2023-05-02T11:58:33.509Z,100571.97
2023-05-02T12:01:36.550Z,100574.97
2023-05-02T12:04:45.563Z,100571.53
2023-05-02T12:07:50.595Z,100568.38
2023-05-02T12:10:56.473Z,100567.81
2023-05-02T12:13:58.808Z,100567.13
2023-05-02T12:17:02.899Z,100568.97
2023-05-02T12:20:07.743Z,100563.59
2023-05-02T12:23:10.729Z,100566.88
2023-05-02T12:26:20.040Z,100565.87
2023-05-02T12:29:22.471Z,100565.66
2023-05-02T12:32:32.487Z,100550.47
2023-05-02T12:35:36.145Z,100549.75
2023-05-02T12:38:38.326Z,100550.91
2023-05-02T12:41:46.010Z,100550.75
2023-05-02T12:44:51.508Z,100562.78
2023-05-02T12:47:53.953Z,100562.87
2023-05-02T12:50:56.099Z,100557.94
2023-05-02T12:53:58.507Z,100563.88
2023-05-02T12:57:02.913Z,100556.31
2023-05-02T13:00:06.660Z,100562.03
2023-05-02T13:03:10.502Z,100543.62
2023-05-02T13:06:13.035Z,100547.88
2023-05-02T13:09:15.239Z,100545.63
2023-05-02T13:12:18.187Z,100548.28
2023-05-02T13:15:20.740Z,100544.66
2023-05-02T13:18:23.289Z,100539.03
2023-05-02T13:21:25.519Z,100539.22
2023-05-02T13:24:27.995Z,100533.31
2023-05-02T13:27:30.301Z,100539.94
2023-05-02T13:30:33.086Z,100540.53
2023-05-02T13:33:35.499Z,100528.13
2023-05-02T13:36:44.058Z,100535.00
2023-05-02T13:39:46.221Z,100531.84
2023-05-02T13:42:48.576Z,100534.72
2023-05-02T13:45:52.127Z,100526.97
2023-05-02T13:48:54.492Z,100532.78
2023-05-02T13:51:56.711Z,100528.28
2023-05-02T13:54:59.129Z,100529.00
2023-05-02T13:58:01.957Z,100533.59
2023-05-02T14:01:04.632Z,100529.78
2023-05-02T14:04:08.950Z,100530.75
2023-05-02T14:07:11.534Z,100522.50
2023-05-02T14:10:13.960Z,100534.97
2023-05-02T14:13:16.116Z,100526.78
2023-05-02T14:16:18.611Z,100526.34
2023-05-02T14:19:20.747Z,100524.44
2023-05-02T14:22:23.226Z,100529.06
2023-05-02T14:25:25.519Z,100528.75
2023-05-02T14:28:28.064Z,100529.78
2023-05-02T14:31:30.934Z,100525.81
2023-05-02T14:34:35.734Z,100523.34
2023-05-02T14:37:38.049Z,100519.69
2023-05-02T14:40:40.642Z,100529.97
2023-05-02T14:43:42.808Z,100528.37
2023-05-02T14:46:45.265Z,100529.63
2023-05-02T14:49:47.479Z,100530.59
2023-05-02T14:52:56.441Z,100542.22
2023-05-02T14:55:58.626Z,100538.59
2023-05-02T14:59:01.055Z,100539.03
2023-05-02T15:02:03.291Z,100538.00
2023-05-02T15:05:07.966Z,100533.56
2023-05-02T15:08:10.224Z,100531.81
2023-05-02T15:11:12.754Z,100541.97
2023-05-02T15:14:14.858Z,100552.69
2023-05-02T15:17:17.271Z,100545.91
2023-05-02T15:20:19.902Z,100540.97
2023-05-02T15:23:22.616Z,100532.78
2023-05-02T15:26:26.166Z,100531.13
2023-05-02T15:29:28.636Z,100524.09
2023-05-02T15:32:30.751Z,100530.56
2023-05-02T15:35:33.146Z,100525.47
2023-05-02T15:38:39.174Z,100526.97
